createdAt,value
2018-06-10T00:01:07.197Z,1.00
2018-06-10T00:03:42.783Z,1.00
2018-06-10T00:06:18.324Z,1.00
2018-06-10T00:08:53.881Z,1.00
2018-06-10T00:11:29.556Z,1.00
2018-06-10T00:14:04.936Z,1.00
2018-06-10T00:16:40.552Z,1.00
2018-06-10T00:19:16.196Z,1.00
2018-06-10T00:21:51.656Z,1.00
2018-06-10T00:24:27.076Z,1.00
2018-06-10T00:27:02.685Z,1.00
2018-06-10T00:29:38.562Z,1.00
2018-06-10T00:32:14.185Z,1.00
2018-06-10T00:34:49.735Z,1.00
2018-06-10T00:37:25.333Z,1.00
2018-06-10T00:40:00.859Z,1.00
2018-06-10T00:42:36.516Z,1.00
2018-06-10T00:45:12.295Z,1.00
2018-06-10T00:47:47.924Z,1.00
2018-06-10T00:50:23.516Z,1.00
2018-06-10T00:52:58.988Z,1.00
2018-06-10T00:55:34.444Z,1.00
2018-06-10T00:58:10.013Z,1.00
2018-06-10T01:00:45.632Z,1.00
2018-06-10T01:03:21.085Z,1.00
2018-06-10T01:05:56.529Z,1.00
2018-06-10T01:08:32.201Z,1.00
2018-06-10T01:11:07.828Z,1.00
2018-06-10T01:13:43.421Z,1.00
2018-06-10T01:16:19.012Z,1.00
2018-06-10T01:18:54.741Z,1.00
2018-06-10T01:21:30.285Z,1.00
2018-06-10T01:24:05.728Z,1.00
2018-06-10T01:26:46.657Z,1.00
2018-06-10T01:29:22.351Z,7.00
2018-06-10T01:31:57.817Z,1.00
2018-06-10T01:34:33.393Z,11.90
2018-06-10T01:37:08.916Z,12.50
2018-06-10T01:39:44.456Z,51.00
2018-06-10T01:42:19.964Z,95.20
2018-06-10T01:44:55.671Z,99.90
2018-06-10T01:47:31.335Z,99.90
2018-06-10T01:50:06.931Z,91.20
2018-06-10T01:52:42.404Z,43.10
2018-06-10T01:55:17.940Z,9.60
2018-06-10T01:57:53.499Z,25.70
2018-06-10T02:00:29.020Z,19.70
2018-06-10T02:03:04.560Z,32.10
2018-06-10T02:05:40.241Z,57.70
2018-06-10T02:08:15.939Z,90.90
2018-06-10T02:10:51.529Z,99.90
2018-06-10T02:13:27.064Z,97.10
2018-06-10T02:16:02.537Z,99.90
2018-06-10T02:18:38.021Z,99.90
2018-06-10T02:21:13.662Z,99.90
2018-06-10T02:23:49.336Z,99.90
2018-06-10T02:26:24.811Z,99.90
2018-06-10T02:29:00.467Z,99.90
2018-06-10T02:31:35.904Z,99.90
2018-06-10T02:34:11.359Z,99.90
2018-06-10T02:36:46.765Z,99.90
2018-06-10T02:39:22.459Z,99.90
2018-06-10T02:41:58.055Z,99.90
2018-06-10T02:44:33.616Z,99.90
2018-06-10T02:47:09.333Z,99.90
2018-06-10T02:49:44.806Z,99.90
2018-06-10T02:52:20.413Z,99.90
2018-06-10T02:54:55.890Z,99.90
2018-06-10T02:57:31.563Z,99.90
2018-06-10T03:00:07.059Z,99.90
2018-06-10T03:02:42.640Z,99.90
2018-06-10T03:05:18.096Z,99.90
2018-06-10T03:07:53.529Z,1.00
2018-06-10T03:10:28.966Z,28.70
2018-06-10T03:13:04.619Z,99.90
2018-06-10T03:15:40.181Z,99.90
2018-06-10T03:18:15.811Z,99.90
2018-06-10T03:20:51.325Z,99.90
2018-06-10T03:23:27.013Z,99.90
2018-06-10T03:26:04.181Z,99.90
2018-06-10T03:28:41.099Z,1.00
2018-06-10T03:31:16.649Z,1.00
2018-06-10T03:33:52.352Z,1.00
2018-06-10T03:36:27.872Z,1.00
2018-06-10T03:39:04.065Z,1.00
2018-06-10T03:41:39.624Z,1.00
2018-06-10T03:44:15.375Z,1.00
2018-06-10T03:46:50.757Z,99.90
2018-06-10T03:49:26.348Z,99.90
2018-06-10T03:52:01.963Z,99.90
2018-06-10T03:54:37.600Z,80.90
2018-06-10T03:57:13.180Z,1.00
2018-06-10T03:59:48.624Z,1.00
2018-06-10T04:02:24.191Z,1.00
2018-06-10T04:04:59.683Z,1.00
2018-06-10T04:07:35.209Z,1.00
2018-06-10T04:10:11.001Z,99.90
2018-06-10T04:12:46.599Z,99.90
2018-06-10T04:15:22.297Z,99.90
2018-06-10T04:17:57.960Z,99.90
2018-06-10T04:20:33.740Z,38.70
2018-06-10T04:23:09.199Z,1.00
2018-06-10T04:25:44.756Z,1.00
2018-06-10T04:28:20.350Z,1.00
2018-06-10T04:30:55.832Z,1.00
2018-06-10T04:33:31.468Z,1.00
2018-06-10T04:36:06.936Z,27.70
2018-06-10T04:38:42.650Z,88.60
2018-06-10T04:41:18.459Z,99.90
2018-06-10T04:43:53.901Z,99.90
2018-06-10T04:46:29.373Z,99.90
2018-06-10T04:49:05.065Z,99.90
2018-06-10T04:51:40.702Z,99.90
2018-06-10T04:54:16.404Z,99.90
2018-06-10T04:56:52.099Z,99.90
2018-06-10T04:59:27.630Z,99.90
2018-06-10T05:02:03.209Z,99.90
2018-06-10T05:04:38.826Z,98.30
2018-06-10T05:07:14.334Z,51.40
2018-06-10T05:09:49.930Z,15.60
2018-06-10T05:12:25.467Z,1.00
2018-06-10T05:15:01.085Z,1.00
2018-06-10T05:17:36.608Z,1.00
2018-06-10T05:20:12.090Z,1.00
2018-06-10T05:22:47.695Z,1.00
2018-06-10T05:25:23.136Z,1.00
2018-06-10T05:27:59.116Z,1.00
2018-06-10T05:30:34.816Z,1.00
2018-06-10T05:33:10.399Z,1.00
2018-06-10T05:35:45.981Z,1.00
2018-06-10T05:38:21.689Z,1.00
2018-06-10T05:40:57.291Z,99.90
2018-06-10T05:43:32.931Z,99.90
2018-06-10T05:46:08.394Z,99.90
2018-06-10T05:48:44.006Z,99.90
2018-06-10T05:51:19.453Z,99.90
2018-06-10T05:53:55.013Z,99.90
2018-06-10T05:56:30.536Z,99.90
2018-06-10T05:59:05.996Z,99.90
2018-06-10T06:01:41.528Z,99.90
2018-06-10T06:04:17.069Z,99.90
2018-06-10T06:06:52.527Z,99.90
2018-06-10T06:09:27.904Z,99.90
2018-06-10T06:12:03.401Z,99.90
2018-06-10T06:17:14.100Z,99.90
2018-06-10T06:19:49.556Z,99.90
2018-06-10T06:22:25.233Z,99.90
2018-06-10T06:25:00.680Z,99.90
2018-06-10T06:27:36.103Z,99.90
2018-06-10T06:30:11.688Z,99.90
2018-06-10T06:32:47.119Z,99.90
2018-06-10T06:35:22.615Z,99.90
2018-06-10T06:37:58.139Z,99.90
2018-06-10T06:40:33.735Z,99.90
2018-06-10T06:43:09.712Z,99.90
2018-06-10T06:45:45.236Z,99.90
2018-06-10T06:48:20.676Z,99.90
2018-06-10T06:50:56.195Z,99.90
2018-06-10T06:53:31.802Z,99.90
2018-06-10T06:56:07.597Z,99.90
2018-06-10T06:58:43.241Z,99.90
2018-06-10T07:01:18.853Z,99.90
2018-06-10T07:03:54.259Z,99.90
2018-06-10T07:06:29.916Z,99.90
2018-06-10T07:09:07.379Z,99.90
2018-06-10T07:11:42.867Z,99.90
2018-06-10T07:14:18.488Z,99.90
2018-06-10T07:16:54.139Z,99.90
2018-06-10T07:19:29.748Z,99.90
2018-06-10T07:22:05.328Z,99.90
2018-06-10T07:24:40.882Z,99.90
2018-06-10T07:27:16.304Z,99.90
2018-06-10T07:29:51.701Z,99.90
2018-06-10T07:32:27.321Z,99.90
2018-06-10T07:35:02.839Z,99.90
2018-06-10T07:37:38.452Z,99.90
2018-06-10T07:40:14.090Z,99.90
2018-06-10T07:42:49.691Z,99.90
2018-06-10T07:45:25.245Z,99.90
2018-06-10T07:48:00.875Z,99.90
2018-06-10T07:50:36.453Z,99.90
2018-06-10T07:53:12.104Z,99.90
2018-06-10T07:55:47.561Z,99.90
2018-06-10T07:58:23.031Z,1.00
2018-06-10T08:00:58.665Z,1.00
2018-06-10T08:03:34.152Z,1.00
2018-06-10T08:06:10.245Z,1.00
2018-06-10T08:08:47.078Z,1.00
2018-06-10T08:11:26.871Z,1.00
2018-06-10T08:14:02.657Z,1.00
2018-06-10T08:16:38.079Z,1.00
2018-06-10T08:19:13.660Z,99.90
2018-06-10T08:21:49.220Z,99.90
2018-06-10T08:24:24.912Z,99.90
2018-06-10T08:27:00.488Z,99.90
2018-06-10T08:29:36.433Z,99.90
2018-06-10T08:32:12.056Z,99.90
2018-06-10T08:34:56.904Z,99.90
2018-06-10T08:37:32.583Z,99.90
2018-06-10T08:40:08.090Z,99.90
2018-06-10T08:42:43.772Z,99.90
2018-06-10T08:45:19.357Z,99.90
2018-06-10T08:47:54.913Z,99.90
2018-06-10T08:50:30.349Z,99.90
2018-06-10T08:53:05.891Z,99.90
2018-06-10T08:58:16.494Z,99.90
2018-06-10T09:00:52.025Z,99.90
2018-06-10T09:03:27.663Z,99.90
2018-06-10T09:06:03.372Z,99.90
2018-06-10T09:08:38.995Z,99.90
2018-06-10T09:11:14.541Z,99.90
2018-06-10T09:13:50.158Z,99.90
2018-06-10T09:16:25.847Z,99.90
2018-06-10T09:19:01.359Z,99.90
2018-06-10T09:21:36.792Z,99.90
2018-06-10T09:24:12.319Z,99.90
2018-06-10T09:26:47.939Z,99.90
2018-06-10T09:29:23.429Z,99.90
2018-06-10T09:31:58.945Z,99.90
2018-06-10T09:34:34.497Z,99.90
2018-06-10T09:37:10.100Z,99.90
2018-06-10T09:39:45.567Z,99.90
2018-06-10T09:42:21.065Z,99.90
2018-06-10T09:44:56.648Z,99.90
2018-06-10T09:47:32.120Z,99.90
2018-06-10T09:50:07.687Z,99.90
2018-06-10T09:52:43.160Z,99.90
2018-06-10T09:55:18.863Z,1.00
2018-06-10T09:57:54.522Z,1.00
2018-06-10T10:00:29.949Z,1.00
2018-06-10T10:03:05.445Z,1.00
2018-06-10T10:05:40.992Z,1.00
2018-06-10T10:08:16.623Z,1.00
2018-06-10T10:10:52.216Z,99.90
2018-06-10T10:13:27.756Z,99.90
2018-06-10T10:16:03.425Z,1.00
2018-06-10T10:18:39.008Z,1.00
2018-06-10T10:21:14.415Z,1.00
2018-06-10T10:23:49.881Z,99.90
2018-06-10T10:26:25.450Z,99.90
2018-06-10T10:29:01.169Z,99.90
2018-06-10T10:31:36.702Z,1.00
2018-06-10T10:34:12.380Z,1.00
2018-06-10T10:36:47.976Z,99.90
2018-06-10T10:39:23.729Z,99.90
2018-06-10T10:41:59.395Z,1.00
2018-06-10T10:44:35.699Z,99.90
2018-06-10T10:47:11.361Z,1.00
2018-06-10T10:49:47.004Z,99.90
2018-06-10T10:52:22.664Z,99.90
2018-06-10T10:54:58.326Z,99.90
2018-06-10T10:57:34.011Z,99.90
2018-06-10T11:00:09.717Z,99.90
2018-06-10T11:02:46.289Z,99.90
2018-06-10T11:05:21.917Z,99.90
2018-06-10T11:07:57.609Z,99.90
2018-06-10T11:10:33.118Z,99.90
2018-06-10T11:13:08.687Z,99.90
2018-06-10T11:15:44.247Z,99.90
2018-06-10T11:18:19.891Z,99.90
2018-06-10T11:20:55.602Z,99.90
2018-06-10T11:23:31.197Z,99.90
2018-06-10T11:26:06.801Z,99.90
2018-06-10T11:28:42.785Z,99.90
2018-06-10T11:31:18.385Z,99.90
2018-06-10T11:33:53.877Z,99.90
2018-06-10T11:36:29.518Z,99.90
2018-06-10T11:39:07.790Z,99.90
2018-06-10T11:41:43.220Z,99.90
2018-06-10T11:44:18.827Z,99.90
2018-06-10T11:46:54.553Z,99.90
2018-06-10T11:49:30.039Z,99.90
2018-06-10T11:52:05.579Z,99.90
2018-06-10T11:54:41.313Z,99.90
2018-06-10T11:57:17.147Z,99.90
2018-06-10T11:59:52.773Z,99.90
2018-06-10T12:02:28.538Z,99.90
2018-06-10T12:05:04.138Z,99.90
2018-06-10T12:07:39.678Z,99.90
2018-06-10T12:10:15.191Z,99.90
2018-06-10T12:12:50.787Z,99.90
2018-06-10T12:15:26.426Z,99.90
2018-06-10T12:18:01.961Z,99.90
2018-06-10T12:20:37.441Z,99.90
2018-06-10T12:23:13.145Z,99.90
2018-06-10T12:25:48.732Z,99.90
2018-06-10T12:28:24.343Z,1.00
2018-06-10T12:31:00.020Z,1.00
2018-06-10T12:33:35.894Z,99.90
2018-06-10T12:36:11.535Z,99.90
2018-06-10T12:38:47.184Z,99.90
2018-06-10T12:41:22.823Z,99.90
2018-06-10T12:43:58.401Z,99.90
2018-06-10T12:46:34.088Z,99.90
2018-06-10T12:49:09.745Z,99.90
2018-06-10T12:51:45.226Z,99.90
2018-06-10T12:54:20.894Z,1.00
2018-06-10T12:56:56.403Z,1.00
2018-06-10T12:59:32.102Z,1.00
2018-06-10T13:02:07.553Z,99.90
2018-06-10T13:04:43.362Z,1.00
2018-06-10T13:07:19.146Z,99.90
2018-06-10T13:09:54.712Z,75.20
2018-06-10T13:12:30.705Z,99.90
2018-06-10T13:15:06.403Z,99.90
2018-06-10T13:17:42.145Z,1.00
2018-06-10T13:20:17.723Z,99.90
2018-06-10T13:22:53.400Z,1.00
2018-06-10T13:25:29.304Z,99.90
2018-06-10T13:28:05.101Z,1.00
2018-06-10T13:30:40.779Z,54.00
2018-06-10T13:33:16.270Z,99.90
2018-06-10T13:35:51.927Z,99.90
2018-06-10T13:38:27.401Z,1.00
2018-06-10T13:41:03.035Z,99.90
2018-06-10T13:43:38.605Z,1.00
2018-06-10T13:46:14.200Z,1.00
2018-06-10T13:48:49.776Z,99.90
2018-06-10T13:51:25.315Z,99.90
2018-06-10T13:54:00.875Z,1.00
2018-06-10T13:56:36.328Z,99.90
2018-06-10T13:59:11.959Z,99.90
2018-06-10T14:04:22.477Z,1.00
2018-06-10T14:06:58.022Z,1.00
2018-06-10T14:09:33.485Z,1.00
2018-06-10T14:12:09.305Z,99.90
2018-06-10T14:14:45.095Z,99.90
2018-06-10T14:17:20.719Z,99.90
2018-06-10T14:19:56.307Z,99.90
2018-06-10T14:22:32.069Z,1.00
2018-06-10T14:25:07.622Z,1.00
2018-06-10T14:27:43.156Z,99.90
2018-06-10T14:30:18.907Z,1.00
2018-06-10T14:35:29.553Z,68.70
2018-06-10T14:38:05.078Z,99.90
2018-06-10T14:40:40.584Z,99.90
2018-06-10T14:43:16.117Z,1.00
2018-06-10T14:45:51.541Z,99.90
2018-06-10T14:48:27.203Z,99.90
2018-06-10T14:51:02.834Z,1.00
2018-06-10T14:53:38.552Z,99.90
2018-06-10T14:56:16.196Z,1.00
2018-06-10T14:58:52.454Z,99.90
2018-06-10T15:01:28.145Z,99.90
2018-06-10T15:04:03.964Z,99.90
2018-06-10T15:06:39.777Z,9.60
2018-06-10T15:09:15.300Z,1.00
2018-06-10T15:11:50.944Z,1.00
2018-06-10T15:14:26.832Z,1.00
2018-06-10T15:17:02.829Z,1.00
2018-06-10T15:19:38.447Z,1.00
2018-06-10T15:22:14.050Z,85.90
2018-06-10T15:24:49.798Z,99.90
2018-06-10T15:27:25.505Z,99.90
2018-06-10T15:30:01.261Z,36.80
2018-06-10T15:32:36.776Z,1.00
2018-06-10T15:35:12.294Z,1.00
2018-06-10T15:37:47.883Z,1.00
2018-06-10T15:40:23.657Z,1.00
2018-06-10T15:42:59.221Z,1.00
2018-06-10T15:45:34.876Z,44.60
2018-06-10T15:48:10.709Z,1.00
2018-06-10T15:50:46.377Z,96.90
2018-06-10T15:53:28.265Z,99.90
2018-06-10T15:56:03.897Z,99.90
2018-06-10T15:58:39.553Z,99.90
2018-06-10T16:01:15.220Z,15.00
2018-06-10T16:03:50.887Z,1.00
2018-06-10T16:06:27.196Z,1.00
2018-06-10T16:09:02.911Z,54.70
2018-06-10T16:11:39.103Z,63.00
2018-06-10T16:14:14.703Z,1.00
2018-06-10T16:16:50.933Z,1.00
2018-06-10T16:19:26.475Z,99.90
2018-06-10T16:22:02.346Z,99.90
2018-06-10T16:24:37.961Z,99.90
2018-06-10T16:27:13.574Z,99.90
2018-06-10T16:29:49.479Z,99.90
2018-06-10T16:32:25.169Z,99.90
2018-06-10T16:35:00.733Z,99.90
2018-06-10T16:37:36.370Z,1.00
2018-06-10T16:40:12.003Z,1.00
2018-06-10T16:42:47.681Z,1.00
2018-06-10T16:45:23.155Z,74.40
2018-06-10T16:47:58.753Z,1.00
2018-06-10T16:50:34.271Z,1.00
2018-06-10T16:53:10.009Z,96.30
2018-06-10T16:55:45.818Z,45.20
2018-06-10T16:58:21.369Z,99.90
2018-06-10T17:00:57.108Z,99.90
2018-06-10T17:03:32.736Z,99.90
2018-06-10T17:06:08.254Z,99.90
2018-06-10T17:08:43.868Z,99.90
2018-06-10T17:11:19.389Z,99.90
2018-06-10T17:13:54.903Z,1.00
2018-06-10T17:16:30.423Z,1.00
2018-06-10T17:19:06.073Z,1.00
2018-06-10T17:21:41.762Z,1.00
2018-06-10T17:24:17.318Z,1.00
2018-06-10T17:26:52.789Z,99.90
2018-06-10T17:29:28.473Z,99.90
2018-06-10T17:32:04.218Z,99.90
2018-06-10T17:34:39.964Z,99.90
2018-06-10T17:37:15.684Z,99.90
2018-06-10T17:39:51.522Z,99.90
2018-06-10T17:42:27.185Z,1.00
2018-06-10T17:45:02.998Z,1.00
2018-06-10T17:47:38.780Z,1.00
2018-06-10T17:50:14.418Z,99.90
2018-06-10T17:52:50.016Z,99.90
2018-06-10T17:55:25.697Z,99.90
2018-06-10T17:58:01.405Z,99.90
2018-06-10T18:00:36.939Z,99.90
2018-06-10T18:03:12.639Z,1.00
2018-06-10T18:05:48.344Z,85.90
2018-06-10T18:08:23.970Z,99.90
2018-06-10T18:10:59.551Z,1.00
2018-06-10T18:13:35.157Z,1.00
2018-06-10T18:16:10.836Z,1.00
2018-06-10T18:18:46.393Z,1.00
2018-06-10T18:21:23.771Z,1.00
2018-06-10T18:23:59.474Z,1.00
2018-06-10T18:26:35.118Z,1.00
2018-06-10T18:29:10.760Z,1.00
2018-06-10T18:31:46.459Z,34.30
2018-06-10T18:34:22.101Z,99.90
2018-06-10T18:36:57.693Z,99.90
2018-06-10T18:39:33.350Z,99.90
2018-06-10T18:42:09.026Z,99.90
2018-06-10T18:44:44.648Z,1.00
2018-06-10T18:47:20.235Z,99.90
2018-06-10T18:49:55.738Z,1.00
2018-06-10T18:52:31.472Z,10.60
2018-06-10T18:55:07.312Z,99.90
2018-06-10T18:57:42.879Z,1.00
2018-06-10T19:00:18.693Z,62.10
2018-06-10T19:02:54.277Z,99.90
2018-06-10T19:05:29.845Z,99.90
2018-06-10T19:08:05.490Z,99.90
2018-06-10T19:10:40.962Z,99.90
2018-06-10T19:13:16.493Z,99.90
2018-06-10T19:15:52.063Z,99.90
2018-06-10T19:18:27.561Z,99.90
2018-06-10T19:21:03.055Z,99.90
2018-06-10T19:26:13.654Z,99.90
2018-06-10T19:28:49.172Z,99.90
2018-06-10T19:31:25.162Z,99.90
2018-06-10T19:34:00.933Z,99.90
2018-06-10T19:36:36.607Z,99.90
2018-06-10T19:39:12.705Z,99.90
2018-06-10T19:41:48.214Z,99.90
2018-06-10T19:44:23.877Z,1.00
2018-06-10T19:46:59.302Z,1.00
2018-06-10T19:49:35.021Z,99.90
2018-06-10T19:52:10.730Z,99.90
2018-06-10T19:54:46.302Z,99.90
2018-06-10T19:57:21.900Z,99.90
2018-06-10T20:02:32.599Z,1.00
2018-06-10T20:05:08.143Z,1.00
2018-06-10T20:07:43.670Z,1.00
2018-06-10T20:10:19.324Z,99.90
2018-06-10T20:12:54.936Z,99.90
2018-06-10T20:15:30.661Z,99.90
2018-06-10T20:20:41.403Z,99.90
2018-06-10T20:23:17.039Z,99.90
2018-06-10T20:25:52.850Z,99.90
2018-06-10T20:28:28.281Z,99.90
2018-06-10T20:31:03.949Z,99.90
2018-06-10T20:33:39.508Z,99.90
2018-06-10T20:36:15.043Z,97.70
2018-06-10T20:38:50.798Z,8.60
2018-06-10T20:41:26.447Z,1.00
2018-06-10T20:44:02.025Z,53.60
2018-06-10T20:46:37.805Z,78.60
2018-06-10T20:49:13.489Z,99.90
2018-06-10T20:51:49.022Z,99.90
2018-06-10T20:54:24.692Z,11.70
2018-06-10T20:57:00.432Z,99.90
2018-06-10T20:59:35.989Z,9.00
2018-06-10T21:02:11.718Z,72.50
2018-06-10T21:04:47.416Z,99.90
2018-06-10T21:07:23.030Z,99.90
2018-06-10T21:09:58.532Z,99.90
2018-06-10T21:12:34.254Z,99.90
2018-06-10T21:15:09.885Z,99.90
2018-06-10T21:17:45.528Z,99.90
2018-06-10T21:20:21.100Z,99.90
2018-06-10T21:22:56.604Z,99.90
2018-06-10T21:25:32.126Z,99.90
2018-06-10T21:28:07.641Z,99.90
2018-06-10T21:30:43.352Z,99.90
2018-06-10T21:33:19.120Z,99.60
2018-06-10T21:35:54.669Z,1.00
2018-06-10T21:38:30.295Z,1.00
2018-06-10T21:41:05.814Z,1.00
2018-06-10T21:43:41.294Z,1.00
2018-06-10T21:46:17.798Z,1.00
2018-06-10T21:48:53.460Z,1.00
2018-06-10T21:51:28.928Z,1.00
2018-06-10T21:54:04.459Z,1.00
2018-06-10T21:56:39.980Z,1.00
2018-06-10T21:59:15.597Z,1.00
2018-06-10T22:01:51.061Z,1.00
2018-06-10T22:04:26.603Z,1.00
2018-06-10T22:07:02.169Z,99.90
2018-06-10T22:09:37.910Z,99.90
2018-06-10T22:12:13.524Z,99.90
2018-06-10T22:14:49.144Z,99.90
2018-06-10T22:17:24.696Z,99.90
2018-06-10T22:20:00.193Z,99.90
2018-06-10T22:22:35.860Z,99.90
2018-06-10T22:25:11.371Z,99.90
2018-06-10T22:27:46.867Z,99.90
2018-06-10T22:30:22.568Z,99.90
2018-06-10T22:32:58.290Z,99.90
2018-06-10T22:35:33.968Z,99.90
2018-06-10T22:38:09.427Z,99.90
2018-06-10T22:40:45.009Z,99.90
2018-06-10T22:43:20.606Z,1.00
2018-06-10T22:45:56.261Z,1.00
2018-06-10T22:48:31.954Z,1.00
2018-06-10T22:51:07.569Z,1.00
2018-06-10T22:54:04.381Z,1.00
2018-06-10T22:56:40.063Z,1.00
2018-06-10T22:59:15.733Z,1.00
2018-06-10T23:01:51.336Z,1.00
2018-06-10T23:04:26.797Z,1.00
2018-06-10T23:07:02.535Z,1.00
2018-06-10T23:09:38.189Z,1.00
2018-06-10T23:12:13.755Z,1.00
2018-06-10T23:14:49.225Z,1.00
2018-06-10T23:17:24.701Z,1.00
2018-06-10T23:20:00.360Z,1.00
2018-06-10T23:22:35.993Z,1.00
2018-06-10T23:25:11.752Z,1.00
2018-06-10T23:27:47.360Z,99.90
2018-06-10T23:30:22.961Z,1.00
2018-06-10T23:32:58.545Z,99.90
2018-06-10T23:35:34.091Z,1.00
2018-06-10T23:38:09.608Z,1.00
2018-06-10T23:40:45.139Z,1.00
2018-06-10T23:43:20.814Z,1.00
2018-06-10T23:45:56.424Z,1.00
2018-06-10T23:48:31.968Z,1.00
2018-06-10T23:51:07.593Z,1.00
2018-06-10T23:53:43.396Z,1.00
2018-06-10T23:56:18.881Z,1.00
2018-06-10T23:58:54.452Z,1.00
